createdAt,value
2023-05-22T00:00:16.571Z,1000.00
2023-05-22T00:01:16.582Z,1000.00
2023-05-22T00:02:16.694Z,1000.00
2023-05-22T00:03:16.711Z,1000.00
2023-05-22T00:04:16.728Z,1000.00
2023-05-22T00:05:16.804Z,1000.00
2023-05-22T00:06:16.835Z,1000.00
2023-05-22T00:07:16.905Z,1000.00
2023-05-22T00:08:16.935Z,1000.00
2023-05-22T00:09:17.014Z,1000.00
2023-05-22T00:10:17.057Z,1000.00
2023-05-22T00:11:17.101Z,1000.00
2023-05-22T00:12:17.093Z,1000.00
2023-05-22T00:13:17.093Z,1000.00
2023-05-22T00:14:17.152Z,1000.00
2023-05-22T00:15:17.167Z,1000.00
2023-05-22T00:16:17.224Z,1000.00
2023-05-22T00:17:17.382Z,1000.00
2023-05-22T00:18:17.301Z,1000.00
2023-05-22T00:19:17.420Z,1000.00
2023-05-22T00:20:17.397Z,1000.00
2023-05-22T00:21:17.423Z,1000.00
2023-05-22T00:22:17.475Z,1000.00
2023-05-22T00:23:17.468Z,1000.00
2023-05-22T00:24:17.472Z,1000.00
2023-05-22T00:25:17.527Z,1000.00
2023-05-22T00:26:17.546Z,1000.00
2023-05-22T00:27:17.636Z,1000.00
2023-05-22T00:28:17.563Z,1000.00
2023-05-22T00:29:17.615Z,1000.00
2023-05-22T00:30:17.626Z,1000.00
2023-05-22T00:31:17.619Z,1000.00
2023-05-22T00:32:17.681Z,1000.00
2023-05-22T00:33:17.647Z,1000.00
2023-05-22T00:34:17.743Z,1000.00
2023-05-22T00:35:17.720Z,1000.00
2023-05-22T00:36:17.716Z,1000.00
2023-05-22T00:37:17.766Z,1000.00
2023-05-22T00:38:17.776Z,1000.00
2023-05-22T00:39:17.803Z,1000.00
2023-05-22T00:40:17.875Z,1000.00
2023-05-22T00:41:17.898Z,1000.00
2023-05-22T00:42:17.917Z,1000.00
2023-05-22T00:43:17.883Z,1000.00
2023-05-22T00:44:17.911Z,1000.00
2023-05-22T00:45:17.916Z,1000.00
2023-05-22T00:46:17.991Z,1000.00
2023-05-22T00:47:17.978Z,1000.00
2023-05-22T00:48:17.999Z,1000.00
2023-05-22T00:49:17.992Z,1000.00
2023-05-22T00:50:18.024Z,1000.00
2023-05-22T00:51:18.083Z,1000.00
2023-05-22T00:52:18.102Z,1000.00
2023-05-22T00:53:18.085Z,1000.00
2023-05-22T00:54:18.127Z,1000.00
2023-05-22T00:55:18.162Z,1000.00
2023-05-22T00:56:18.208Z,1000.00
2023-05-22T00:57:18.261Z,1000.00
2023-05-22T00:58:18.299Z,1000.00
2023-05-22T00:59:18.339Z,1000.00
2023-05-22T01:00:18.409Z,1000.00
2023-05-22T01:01:18.523Z,1000.00
2023-05-22T01:02:18.486Z,1000.00
2023-05-22T01:03:18.631Z,1000.00
2023-05-22T01:04:18.696Z,1000.00
2023-05-22T01:05:18.588Z,1000.00
2023-05-22T01:06:18.628Z,1000.00
2023-05-22T01:07:18.636Z,1000.00
2023-05-22T01:08:18.684Z,1000.00
2023-05-22T01:09:18.706Z,1000.00
2023-05-22T01:10:18.737Z,1000.00
2023-05-22T01:11:18.809Z,1000.00
2023-05-22T01:12:18.806Z,1000.00
2023-05-22T01:13:18.802Z,1000.00
2023-05-22T01:14:18.916Z,1000.00
2023-05-22T01:15:18.914Z,1000.00
2023-05-22T01:16:19.083Z,1000.00
2023-05-22T01:17:18.953Z,1000.00
2023-05-22T01:18:18.991Z,1000.00
2023-05-22T01:19:19.049Z,1000.00
2023-05-22T01:20:19.031Z,1000.00
2023-05-22T01:21:19.061Z,1000.00
2023-05-22T01:22:19.103Z,1000.00
2023-05-22T01:23:19.176Z,1000.00
2023-05-22T01:24:19.221Z,1000.00
2023-05-22T01:25:19.264Z,1000.00
2023-05-22T01:26:19.310Z,1000.00
2023-05-22T01:27:19.365Z,1000.00
2023-05-22T01:28:19.416Z,1000.00
2023-05-22T01:29:19.504Z,1000.00
2023-05-22T01:30:19.489Z,1000.00
2023-05-22T01:31:19.535Z,1000.00
2023-05-22T01:32:19.542Z,1000.00
2023-05-22T01:33:19.685Z,1000.00
2023-05-22T01:34:19.597Z,1000.00
2023-05-22T01:35:19.667Z,1000.00
2023-05-22T01:36:19.704Z,1000.00
2023-05-22T01:37:19.735Z,1000.00
2023-05-22T01:38:19.772Z,1000.00
2023-05-22T01:39:19.777Z,1000.00
2023-05-22T01:40:19.780Z,1000.00
2023-05-22T01:41:19.776Z,1000.00
2023-05-22T01:42:19.810Z,1000.00
2023-05-22T01:43:19.957Z,1000.00
2023-05-22T01:44:19.850Z,1000.00
2023-05-22T01:45:19.885Z,1000.00
2023-05-22T01:46:20.142Z,1000.00
2023-05-22T01:47:19.963Z,1000.00
2023-05-22T01:48:20.027Z,1000.00
2023-05-22T01:49:20.026Z,1000.00
2023-05-22T01:50:20.049Z,1000.00
2023-05-22T01:51:20.107Z,1000.00
2023-05-22T01:52:20.191Z,1000.00
2023-05-22T01:53:20.243Z,1000.00
2023-05-22T01:54:20.268Z,1000.00
2023-05-22T01:55:20.265Z,1000.00
2023-05-22T01:56:20.259Z,1000.00
2023-05-22T01:57:20.280Z,1000.00
2023-05-22T01:58:20.302Z,1000.00
2023-05-22T01:59:20.342Z,1000.00
2023-05-22T02:00:20.349Z,1000.00
2023-05-22T02:01:20.410Z,1000.00
2023-05-22T02:02:20.478Z,1000.00
2023-05-22T02:03:20.572Z,1000.00
2023-05-22T02:04:20.491Z,1000.00
2023-05-22T02:05:20.547Z,1000.00
2023-05-22T02:06:20.598Z,1000.00
2023-05-22T02:07:20.637Z,1000.00
2023-05-22T02:08:20.725Z,1000.00
2023-05-22T02:09:20.734Z,1000.00
2023-05-22T02:10:20.780Z,1000.00
2023-05-22T02:11:20.865Z,1000.00
2023-05-22T02:12:20.853Z,1000.00
2023-05-22T02:13:20.893Z,1000.00
2023-05-22T02:14:20.892Z,1000.00
2023-05-22T02:15:20.923Z,1000.00
2023-05-22T02:16:20.977Z,1000.00
2023-05-22T02:17:20.944Z,1000.00
2023-05-22T02:18:20.943Z,1000.00
2023-05-22T02:19:21.036Z,1000.00
2023-05-22T02:20:21.011Z,1000.00
2023-05-22T02:21:21.080Z,1000.00
2023-05-22T02:22:21.122Z,1000.00
2023-05-22T02:23:21.132Z,1000.00
2023-05-22T02:24:21.167Z,1000.00
2023-05-22T02:25:21.239Z,1000.00
2023-05-22T02:26:21.253Z,1000.00
2023-05-22T02:27:21.310Z,1000.00
2023-05-22T02:28:21.310Z,1000.00
2023-05-22T02:29:21.316Z,1000.00
2023-05-22T02:30:21.315Z,1000.00
2023-05-22T02:31:21.380Z,1000.00
2023-05-22T02:32:21.350Z,1000.00
2023-05-22T02:33:21.448Z,1000.00
2023-05-22T02:34:21.438Z,1000.00
2023-05-22T02:35:21.464Z,1000.00
2023-05-22T02:36:21.495Z,1000.00
2023-05-22T02:37:21.536Z,1000.00
2023-05-22T02:38:21.567Z,1000.00
2023-05-22T02:39:21.588Z,1000.00
2023-05-22T02:40:21.607Z,1000.00
2023-05-22T02:41:21.647Z,1000.00
2023-05-22T02:42:21.698Z,1000.00
2023-05-22T02:43:21.710Z,1000.00
2023-05-22T02:44:21.747Z,1000.00
2023-05-22T02:45:21.785Z,1000.00
2023-05-22T02:46:21.860Z,1000.00
2023-05-22T02:47:21.892Z,1000.00
2023-05-22T02:48:21.996Z,1000.00
2023-05-22T02:49:22.000Z,1000.00
2023-05-22T02:50:22.048Z,1000.00
2023-05-22T02:51:22.096Z,1000.00
2023-05-22T02:52:22.143Z,1000.00
2023-05-22T02:53:22.169Z,1000.00
2023-05-22T02:54:22.217Z,1000.00
2023-05-22T02:55:22.243Z,1000.00
2023-05-22T02:56:22.315Z,1000.00
2023-05-22T02:57:22.345Z,1000.00
2023-05-22T02:58:22.390Z,1000.00
2023-05-22T02:59:22.411Z,1000.00
2023-05-22T03:00:22.464Z,1000.00
2023-05-22T03:01:22.534Z,1000.00
2023-05-22T03:02:22.486Z,1000.00
2023-05-22T03:03:22.589Z,1000.00
2023-05-22T03:04:22.554Z,1000.00
2023-05-22T03:05:22.572Z,1000.00
2023-05-22T03:06:22.608Z,1000.00
2023-05-22T03:07:22.664Z,1000.00
2023-05-22T03:08:22.677Z,1000.00
2023-05-22T03:09:22.712Z,1000.00
2023-05-22T03:10:22.739Z,1000.00
2023-05-22T03:11:22.858Z,1000.00
2023-05-22T03:12:22.827Z,1000.00
2023-05-22T03:13:22.841Z,1000.00
2023-05-22T03:14:22.851Z,1000.00
2023-05-22T03:15:22.889Z,1000.00
2023-05-22T03:16:22.946Z,1000.00
2023-05-22T03:17:22.949Z,1000.00
2023-05-22T03:18:23.928Z,1000.00
2023-05-22T03:19:23.084Z,1000.00
2023-05-22T03:20:23.060Z,1000.00
2023-05-22T03:21:23.086Z,1000.00
2023-05-22T03:22:23.123Z,1000.00
2023-05-22T03:23:23.156Z,1000.00
2023-05-22T03:24:23.207Z,1000.00
2023-05-22T03:25:23.205Z,1000.00
2023-05-22T03:26:23.221Z,1000.00
2023-05-22T03:27:23.295Z,1000.00
2023-05-22T03:28:23.315Z,1000.00
2023-05-22T03:29:23.352Z,1000.00
2023-05-22T03:30:23.418Z,1000.00
2023-05-22T03:31:23.428Z,1000.00
2023-05-22T03:32:23.491Z,1000.00
2023-05-22T03:33:23.501Z,1000.00
2023-05-22T03:34:23.538Z,1000.00
2023-05-22T03:35:23.573Z,1000.00
2023-05-22T03:36:23.581Z,1000.00
2023-05-22T03:37:23.603Z,1000.00
2023-05-22T03:38:23.647Z,1000.00
2023-05-22T03:39:23.670Z,1000.00
2023-05-22T03:40:23.687Z,1000.00
2023-05-22T03:41:23.753Z,1000.00
2023-05-22T03:42:23.772Z,1000.00
2023-05-22T03:43:23.805Z,1000.00
2023-05-22T03:44:23.826Z,1000.00
2023-05-22T03:45:23.867Z,1000.00
2023-05-22T03:46:24.076Z,1000.00
2023-05-22T03:47:24.013Z,1000.00
2023-05-22T03:48:24.020Z,1000.00
2023-05-22T03:49:24.047Z,1000.00
2023-05-22T03:50:24.089Z,1000.00
2023-05-22T03:51:24.164Z,1000.00
2023-05-22T03:52:24.174Z,1000.00
2023-05-22T03:53:24.253Z,1000.00
2023-05-22T03:54:24.288Z,1000.00
2023-05-22T03:55:24.287Z,1000.00
2023-05-22T03:56:24.315Z,1000.00
2023-05-22T03:57:24.348Z,1000.00
2023-05-22T03:58:24.349Z,1000.00
2023-05-22T03:59:24.402Z,1000.00
2023-05-22T04:00:26.761Z,1000.00
2023-05-22T04:01:24.616Z,1000.00
2023-05-22T04:02:24.731Z,1000.00
2023-05-22T04:03:24.721Z,1000.00
2023-05-22T04:04:24.640Z,1000.00
2023-05-22T04:05:24.686Z,1000.00
2023-05-22T04:06:24.702Z,1000.00
2023-05-22T04:07:24.751Z,1000.00
2023-05-22T04:08:24.782Z,1000.00
2023-05-22T04:09:24.834Z,1000.00
2023-05-22T04:10:24.860Z,1000.00
2023-05-22T04:11:24.871Z,1000.00
2023-05-22T04:12:24.911Z,1000.00
2023-05-22T04:13:24.946Z,1000.00
2023-05-22T04:14:24.982Z,1000.00
2023-05-22T04:15:25.042Z,1000.00
2023-05-22T04:16:25.230Z,1000.00
2023-05-22T04:17:25.143Z,1000.00
2023-05-22T04:18:25.166Z,1000.00
2023-05-22T04:19:25.236Z,1000.00
2023-05-22T04:20:25.257Z,1000.00
2023-05-22T04:21:25.303Z,1000.00
2023-05-22T04:22:25.343Z,1000.00
2023-05-22T04:23:25.378Z,1000.00
2023-05-22T04:24:25.442Z,1000.00
2023-05-22T04:25:25.421Z,1000.00
2023-05-22T04:26:25.463Z,1000.00
2023-05-22T04:27:25.479Z,1000.00
2023-05-22T04:28:26.330Z,1000.00
2023-05-22T04:29:25.591Z,1000.00
2023-05-22T04:30:25.654Z,1000.00
2023-05-22T04:31:25.728Z,1000.00
2023-05-22T04:32:25.739Z,1000.00
2023-05-22T04:33:25.751Z,1000.00
2023-05-22T04:34:25.786Z,1000.00
2023-05-22T04:35:25.784Z,1000.00
2023-05-22T04:36:25.820Z,1000.00
2023-05-22T04:37:25.843Z,1000.00
2023-05-22T04:38:25.849Z,1000.00
2023-05-22T04:39:25.860Z,1000.00
2023-05-22T04:40:25.888Z,1000.00
2023-05-22T04:41:25.901Z,1000.00
2023-05-22T04:42:25.911Z,1000.00
2023-05-22T04:43:25.938Z,1000.00
2023-05-22T04:44:25.972Z,1000.00
2023-05-22T04:45:26.018Z,1000.00
2023-05-22T04:46:26.079Z,1000.00
2023-05-22T04:47:26.091Z,1000.00
2023-05-22T04:48:26.125Z,1000.00
2023-05-22T04:49:26.132Z,1000.00
2023-05-22T04:50:26.192Z,1000.00
2023-05-22T04:51:26.196Z,1000.00
2023-05-22T04:52:26.224Z,1000.00
2023-05-22T04:53:26.219Z,1000.00
2023-05-22T04:54:26.228Z,1000.00
2023-05-22T04:55:26.277Z,1000.00
2023-05-22T04:56:35.551Z,1000.00
2023-05-22T04:57:27.293Z,1000.00
2023-05-22T04:58:26.264Z,1000.00
2023-05-22T04:59:26.255Z,1000.00
2023-05-22T05:00:26.301Z,1000.00
2023-05-22T05:01:26.344Z,1000.00
2023-05-22T05:02:26.275Z,1000.00
2023-05-22T05:03:26.240Z,1000.00
2023-05-22T05:04:26.243Z,1000.00
2023-05-22T05:05:26.834Z,1000.00
2023-05-22T05:06:26.197Z,1000.00
2023-05-22T05:07:26.220Z,1000.00
2023-05-22T05:08:26.193Z,1000.00
2023-05-22T05:09:26.173Z,1000.00
2023-05-22T05:10:26.166Z,1000.00
2023-05-22T05:11:26.182Z,1000.00
2023-05-22T05:12:26.157Z,1000.00
2023-05-22T05:13:26.155Z,1000.00
2023-05-22T05:14:26.175Z,1000.00
2023-05-22T05:15:26.316Z,1000.00
2023-05-22T05:16:26.236Z,1000.00
2023-05-22T05:17:26.362Z,1000.00
2023-05-22T05:18:26.313Z,1000.00
2023-05-22T05:19:26.413Z,1000.00
2023-05-22T05:20:26.377Z,1000.00
2023-05-22T05:21:26.406Z,1000.00
2023-05-22T05:22:26.497Z,1000.00
2023-05-22T05:23:26.454Z,1000.00
2023-05-22T05:24:26.486Z,1000.00
2023-05-22T05:25:26.548Z,1000.00
2023-05-22T05:26:26.665Z,1000.00
2023-05-22T05:27:26.645Z,1000.00
2023-05-22T05:28:26.760Z,1000.00
2023-05-22T05:29:26.781Z,1000.00
2023-05-22T05:30:26.754Z,1000.00
2023-05-22T05:31:26.906Z,1000.00
2023-05-22T05:32:28.471Z,1000.00
2023-05-22T05:33:26.925Z,1000.00
2023-05-22T05:34:26.879Z,1000.00
2023-05-22T05:35:26.951Z,1000.00
2023-05-22T05:36:26.933Z,1000.00
2023-05-22T05:37:27.348Z,1000.00
2023-05-22T05:38:27.890Z,1000.00
2023-05-22T05:39:27.060Z,1000.00
2023-05-22T05:40:27.076Z,1000.00
2023-05-22T05:41:27.133Z,1000.00
2023-05-22T05:42:27.129Z,1000.00
2023-05-22T05:43:27.222Z,1000.00
2023-05-22T05:44:27.235Z,1000.00
2023-05-22T05:45:27.267Z,1000.00
2023-05-22T05:46:27.327Z,1000.00
2023-05-22T05:47:27.391Z,1000.00
2023-05-22T05:48:27.382Z,1000.00
2023-05-22T05:49:27.364Z,1000.00
2023-05-22T05:50:27.500Z,1000.00
2023-05-22T05:51:27.405Z,1000.00
2023-05-22T05:52:27.463Z,1000.00
2023-05-22T05:53:27.548Z,1000.00
2023-05-22T05:54:27.614Z,1000.00
2023-05-22T05:55:27.586Z,1000.00
2023-05-22T05:56:27.555Z,1000.00
2023-05-22T05:57:27.555Z,1000.00
2023-05-22T05:58:27.584Z,1000.00
2023-05-22T05:59:27.620Z,1000.00
2023-05-22T06:00:27.656Z,1000.00
2023-05-22T06:01:27.715Z,1000.00
2023-05-22T06:02:27.765Z,1000.00
2023-05-22T06:03:27.879Z,1000.00
2023-05-22T06:04:27.741Z,1000.00
2023-05-22T06:05:27.809Z,1000.00
2023-05-22T06:06:27.806Z,1000.00
2023-05-22T06:07:27.853Z,1000.00
2023-05-22T06:08:28.980Z,1000.00
2023-05-22T06:09:27.953Z,1000.00
2023-05-22T06:10:28.002Z,1000.00
2023-05-22T06:11:28.087Z,1000.00
2023-05-22T06:12:28.080Z,1000.00
2023-05-22T06:13:28.087Z,1000.00
2023-05-22T06:14:28.126Z,1000.00
2023-05-22T06:15:28.168Z,1000.00
2023-05-22T06:16:28.257Z,1000.00
2023-05-22T06:17:28.296Z,1000.00
2023-05-22T06:18:28.319Z,1000.00
2023-05-22T06:19:28.375Z,1000.00
2023-05-22T06:20:28.358Z,1000.00
2023-05-22T06:21:28.389Z,1000.00
2023-05-22T06:22:28.565Z,1000.00
2023-05-22T06:23:28.459Z,1000.00
2023-05-22T06:24:28.447Z,1000.00
2023-05-22T06:25:28.521Z,1000.00
2023-05-22T06:26:28.529Z,1000.00
2023-05-22T06:27:28.579Z,1000.00
2023-05-22T06:28:28.586Z,1000.00
2023-05-22T06:29:28.663Z,995.13
2023-05-22T06:30:39.689Z,1000.00
2023-05-22T06:31:29.705Z,1000.00
2023-05-22T06:32:28.857Z,1000.00
2023-05-22T06:33:28.880Z,1000.00
2023-05-22T06:34:28.823Z,1000.00
2023-05-22T06:35:28.734Z,1000.00
2023-05-22T06:36:28.682Z,1000.00
2023-05-22T06:37:28.702Z,1000.00
2023-05-22T06:38:28.631Z,1000.00
2023-05-22T06:39:29.898Z,1000.00
2023-05-22T06:40:28.836Z,1000.00
2023-05-22T06:41:28.638Z,1000.00
2023-05-22T06:42:28.687Z,1000.00
2023-05-22T06:43:28.689Z,1000.00
2023-05-22T06:44:28.637Z,1000.00
2023-05-22T06:45:28.627Z,1000.00
2023-05-22T06:46:28.602Z,1000.00
2023-05-22T06:47:28.895Z,588.49
2023-05-22T06:48:28.556Z,369.28
2023-05-22T06:49:28.545Z,385.65
2023-05-22T06:50:28.623Z,544.91
2023-05-22T06:51:28.601Z,470.91
2023-05-22T06:52:28.580Z,485.65
2023-05-22T06:53:28.539Z,375.61
2023-05-22T06:54:28.548Z,342.85
2023-05-22T06:55:28.546Z,332.73
2023-05-22T06:56:28.770Z,421.87
2023-05-22T06:57:28.504Z,653.78
2023-05-22T06:58:28.491Z,802.31
2023-05-22T06:59:28.510Z,772.67
2023-05-22T07:00:28.577Z,1000.00
2023-05-22T07:01:28.542Z,693.59
2023-05-22T07:02:28.511Z,589.97
2023-05-22T07:03:28.488Z,526.03
2023-05-22T07:04:28.457Z,224.55
2023-05-22T07:05:28.505Z,268.15
2023-05-22T07:06:28.468Z,232.36
2023-05-22T07:07:28.498Z,278.19
2023-05-22T07:08:30.393Z,464.74
2023-05-22T07:09:28.444Z,270.18
2023-05-22T07:10:28.449Z,357.01
2023-05-22T07:11:28.413Z,344.96
2023-05-22T07:12:28.515Z,349.80
2023-05-22T07:13:28.502Z,482.24
2023-05-22T07:14:28.532Z,436.77
2023-05-22T07:15:28.580Z,241.78
2023-05-22T07:16:28.691Z,211.17
2023-05-22T07:17:28.702Z,145.93
2023-05-22T07:18:28.826Z,125.70
2023-05-22T07:19:28.882Z,55.69
2023-05-22T07:20:28.932Z,43.87
2023-05-22T07:21:28.776Z,45.26
2023-05-22T07:22:28.918Z,50.08
2023-05-22T07:23:29.435Z,56.01
2023-05-22T07:24:28.904Z,68.99
2023-05-22T07:25:28.879Z,55.81
2023-05-22T07:26:28.908Z,33.41
2023-05-22T07:27:28.980Z,27.56
2023-05-22T07:28:29.055Z,28.50
2023-05-22T07:29:29.119Z,34.11
2023-05-22T07:30:29.127Z,21.09
2023-05-22T07:31:29.159Z,20.32
2023-05-22T07:32:29.552Z,23.07
2023-05-22T07:33:29.236Z,51.03
2023-05-22T07:34:29.634Z,24.96
2023-05-22T07:35:29.442Z,29.62
2023-05-22T07:36:29.410Z,30.52
2023-05-22T07:37:29.376Z,43.27
2023-05-22T07:38:30.382Z,86.19
2023-05-22T07:39:29.531Z,66.33
2023-05-22T07:40:29.472Z,58.14
2023-05-22T07:41:29.586Z,26.19
2023-05-22T07:42:30.475Z,36.80
2023-05-22T07:43:29.534Z,53.31
2023-05-22T07:44:29.570Z,30.14
2023-05-22T07:45:30.386Z,40.01
2023-05-22T07:46:29.605Z,51.08
2023-05-22T07:47:29.521Z,29.52
2023-05-22T07:48:29.564Z,21.94
2023-05-22T07:49:29.530Z,25.61
2023-05-22T07:50:29.554Z,14.91
2023-05-22T07:51:29.681Z,14.48
2023-05-22T07:52:29.681Z,9.14
2023-05-22T07:53:29.753Z,7.53
2023-05-22T07:54:29.966Z,13.17
2023-05-22T07:55:29.778Z,11.04
2023-05-22T07:56:29.793Z,9.06
2023-05-22T07:57:29.961Z,5.33
2023-05-22T07:58:29.833Z,6.49
2023-05-22T07:59:29.942Z,10.29
2023-05-22T08:00:29.890Z,7.46
2023-05-22T08:01:29.916Z,8.59
2023-05-22T08:02:30.031Z,10.73
2023-05-22T08:03:30.085Z,7.77
2023-05-22T08:04:30.115Z,4.29
2023-05-22T08:05:30.029Z,5.37
2023-05-22T08:06:30.069Z,4.85
2023-05-22T08:07:30.084Z,14.46
2023-05-22T08:08:31.772Z,9.79
2023-05-22T08:09:30.197Z,9.51
2023-05-22T08:10:46.450Z,9.21
2023-05-22T08:11:31.285Z,5.42
2023-05-22T08:12:30.242Z,5.06
2023-05-22T08:13:30.239Z,2.59
2023-05-22T08:14:30.207Z,2.61
2023-05-22T08:15:30.267Z,1.68
2023-05-22T08:16:30.210Z,0.90
2023-05-22T08:17:30.528Z,2.23
2023-05-22T08:18:30.666Z,2.03
2023-05-22T08:19:30.270Z,1.70
2023-05-22T08:20:30.238Z,3.83
2023-05-22T08:21:30.250Z,4.53
2023-05-22T08:22:30.160Z,2.53
2023-05-22T08:23:30.175Z,0.85
2023-05-22T08:24:30.256Z,0.39
2023-05-22T08:25:30.162Z,0.34
2023-05-22T08:26:32.220Z,0.34
2023-05-22T08:27:30.417Z,0.34
2023-05-22T08:28:30.400Z,0.36
2023-05-22T08:29:30.331Z,0.43
2023-05-22T08:30:30.371Z,0.34
2023-05-22T08:31:30.490Z,0.39
2023-05-22T08:32:31.415Z,0.74
2023-05-22T08:33:30.477Z,0.82
2023-05-22T08:34:30.542Z,0.56
2023-05-22T08:35:30.650Z,1.13
2023-05-22T08:36:30.652Z,1.48
2023-05-22T08:37:30.898Z,0.85
2023-05-22T08:38:31.424Z,1.56
2023-05-22T08:39:30.733Z,0.73
2023-05-22T08:40:30.752Z,0.86
2023-05-22T08:41:30.773Z,1.11
2023-05-22T08:42:30.933Z,1.17
2023-05-22T08:43:30.859Z,0.68
2023-05-22T08:44:30.873Z,0.70
2023-05-22T08:45:30.964Z,0.88
2023-05-22T08:46:30.917Z,0.67
2023-05-22T08:47:31.443Z,0.52
2023-05-22T08:48:31.426Z,0.42
2023-05-22T08:49:30.988Z,0.85
2023-05-22T08:50:31.015Z,0.74
2023-05-22T08:51:31.311Z,0.82
2023-05-22T08:52:31.127Z,0.55
2023-05-22T08:53:31.921Z,0.50
2023-05-22T08:54:31.105Z,0.70
2023-05-22T08:55:31.155Z,0.34
2023-05-22T08:56:32.147Z,0.34
2023-05-22T08:57:31.216Z,0.86
2023-05-22T08:58:31.286Z,0.85
2023-05-22T08:59:31.444Z,0.34
2023-05-22T09:00:31.366Z,0.38
2023-05-22T09:01:31.442Z,0.36
2023-05-22T09:02:31.525Z,0.82
2023-05-22T09:03:31.596Z,2.17
2023-05-22T09:04:31.555Z,0.38
2023-05-22T09:05:32.455Z,0.51
2023-05-22T09:06:31.596Z,0.50
2023-05-22T09:07:31.679Z,0.51
2023-05-22T09:08:31.698Z,0.54
2023-05-22T09:09:31.648Z,1.05
2023-05-22T09:10:31.715Z,0.85
2023-05-22T09:11:31.691Z,0.47
2023-05-22T09:12:31.731Z,0.94
2023-05-22T09:13:31.751Z,0.94
2023-05-22T09:14:31.809Z,0.52
2023-05-22T09:15:32.432Z,0.37
2023-05-22T09:16:31.892Z,1.08
2023-05-22T09:17:31.854Z,1.00
2023-05-22T09:18:31.896Z,0.80
2023-05-22T09:19:31.984Z,0.69
2023-05-22T09:20:32.002Z,0.43
2023-05-22T09:21:32.037Z,0.76
2023-05-22T09:22:32.095Z,0.71
2023-05-22T09:23:32.162Z,0.74
2023-05-22T09:24:32.230Z,0.70
2023-05-22T09:25:32.243Z,0.44
2023-05-22T09:26:32.290Z,0.35
2023-05-22T09:27:32.311Z,0.67
2023-05-22T09:28:32.368Z,2.28
2023-05-22T09:29:32.390Z,6.61
2023-05-22T09:30:32.398Z,4.66
2023-05-22T09:31:32.546Z,0.91
2023-05-22T09:32:32.983Z,0.61
2023-05-22T09:33:32.931Z,0.70
2023-05-22T09:34:32.528Z,0.75
2023-05-22T09:35:32.581Z,0.84
2023-05-22T09:36:32.556Z,2.00
2023-05-22T09:37:33.021Z,1.11
2023-05-22T09:38:32.652Z,1.09
2023-05-22T09:39:32.680Z,0.66
2023-05-22T09:40:32.672Z,1.16
2023-05-22T09:41:32.708Z,1.30
2023-05-22T09:42:33.452Z,1.42
2023-05-22T09:43:32.951Z,1.09
2023-05-22T09:44:33.450Z,0.57
2023-05-22T09:45:32.780Z,0.79
2023-05-22T09:46:32.851Z,0.78
2023-05-22T09:47:32.896Z,1.60
2023-05-22T09:48:33.087Z,0.98
2023-05-22T09:49:33.459Z,0.53
2023-05-22T09:50:32.888Z,0.92
2023-05-22T09:51:32.866Z,0.91
2023-05-22T09:52:32.923Z,0.99
2023-05-22T09:53:33.443Z,0.88
2023-05-22T09:54:33.095Z,1.51
2023-05-22T09:55:33.116Z,1.94
2023-05-22T09:56:39.321Z,1.10
2023-05-22T09:57:34.152Z,1.05
2023-05-22T09:58:33.490Z,1.11
2023-05-22T09:59:33.162Z,0.67
2023-05-22T10:00:33.217Z,0.42
2023-05-22T10:01:33.129Z,0.38
2023-05-22T10:02:33.175Z,0.58
2023-05-22T10:03:33.213Z,1.51
2023-05-22T10:04:33.616Z,0.82
2023-05-22T10:05:33.155Z,1.27
2023-05-22T10:06:33.084Z,0.53
2023-05-22T10:07:33.086Z,0.68
2023-05-22T10:08:33.151Z,0.64
2023-05-22T10:09:33.071Z,0.58
2023-05-22T10:10:33.089Z,0.58
2023-05-22T10:11:33.158Z,0.71
2023-05-22T10:12:33.125Z,0.99
2023-05-22T10:13:33.095Z,1.62
2023-05-22T10:14:33.267Z,2.71
2023-05-22T10:15:33.198Z,2.49
2023-05-22T10:16:33.292Z,1.60
2023-05-22T10:17:33.329Z,2.77
2023-05-22T10:18:33.342Z,1.42
2023-05-22T10:19:33.616Z,1.32
2023-05-22T10:20:33.428Z,0.72
2023-05-22T10:21:33.457Z,0.63
2023-05-22T10:22:33.556Z,0.88
2023-05-22T10:23:33.597Z,1.46
2023-05-22T10:24:33.947Z,2.71
2023-05-22T10:25:33.622Z,2.80
2023-05-22T10:26:33.726Z,3.69
2023-05-22T10:27:33.671Z,5.62
2023-05-22T10:28:33.736Z,5.06
2023-05-22T10:29:33.986Z,5.24
2023-05-22T10:30:33.815Z,3.49
2023-05-22T10:31:33.890Z,4.87
2023-05-22T10:32:33.943Z,7.48
2023-05-22T10:33:33.974Z,8.64
2023-05-22T10:34:34.980Z,5.33
2023-05-22T10:35:33.977Z,3.81
2023-05-22T10:36:33.941Z,4.80
2023-05-22T10:37:33.972Z,4.46
2023-05-22T10:38:34.032Z,2.72
2023-05-22T10:39:34.071Z,1.71
2023-05-22T10:40:34.084Z,0.93
2023-05-22T10:41:34.134Z,1.53
2023-05-22T10:42:34.257Z,2.74
2023-05-22T10:43:34.210Z,1.83
2023-05-22T10:44:34.250Z,2.98
2023-05-22T10:45:34.256Z,3.67
2023-05-22T10:46:34.437Z,1.03
2023-05-22T10:47:34.359Z,1.20
2023-05-22T10:48:34.363Z,1.99
2023-05-22T10:49:34.420Z,0.69
2023-05-22T10:50:34.972Z,0.53
2023-05-22T10:51:34.541Z,1.11
2023-05-22T10:52:34.448Z,1.92
2023-05-22T10:53:34.459Z,0.77
2023-05-22T10:54:35.000Z,0.78
2023-05-22T10:55:34.556Z,0.97
2023-05-22T10:56:34.606Z,1.08
2023-05-22T10:57:34.649Z,1.30
2023-05-22T10:58:34.657Z,1.43
2023-05-22T10:59:34.685Z,1.38
2023-05-22T11:00:34.750Z,1.03
2023-05-22T11:01:34.801Z,3.05
2023-05-22T11:02:35.488Z,1.18
2023-05-22T11:03:34.906Z,2.53
2023-05-22T11:04:34.937Z,2.61
2023-05-22T11:05:34.894Z,0.76
2023-05-22T11:06:34.954Z,0.57
2023-05-22T11:07:35.045Z,0.34
2023-05-22T11:08:34.973Z,0.89
2023-05-22T11:09:35.097Z,1.74
2023-05-22T11:10:35.084Z,0.49
2023-05-22T11:11:35.045Z,0.76
2023-05-22T11:12:35.128Z,0.98
2023-05-22T11:13:35.102Z,1.27
2023-05-22T11:14:35.113Z,0.84
2023-05-22T11:15:35.114Z,0.76
2023-05-22T11:16:35.205Z,0.61
2023-05-22T11:17:35.258Z,0.77
2023-05-22T11:18:35.228Z,1.12
2023-05-22T11:19:35.355Z,0.34
2023-05-22T11:20:35.256Z,0.34
2023-05-22T11:21:35.317Z,0.34
2023-05-22T11:22:35.317Z,0.58
2023-05-22T11:23:35.485Z,0.47
2023-05-22T11:24:35.439Z,0.42
2023-05-22T11:25:35.511Z,0.72
2023-05-22T11:26:35.512Z,0.69
2023-05-22T11:27:35.563Z,1.06
2023-05-22T11:28:35.631Z,0.92
2023-05-22T11:29:35.695Z,0.81
2023-05-22T11:30:35.701Z,1.09
2023-05-22T11:31:35.858Z,0.65
2023-05-22T11:32:35.877Z,0.71
2023-05-22T11:33:35.871Z,0.56
2023-05-22T11:34:35.916Z,1.11
2023-05-22T11:35:35.926Z,0.66
2023-05-22T11:36:35.927Z,0.70
2023-05-22T11:37:35.983Z,0.59
2023-05-22T11:38:36.033Z,2.56
2023-05-22T11:39:36.167Z,3.32
2023-05-22T11:40:36.081Z,2.36
2023-05-22T11:41:36.129Z,1.86
2023-05-22T11:42:36.144Z,3.25
2023-05-22T11:43:36.109Z,1.88
2023-05-22T11:44:36.125Z,1.03
2023-05-22T11:45:36.143Z,0.56
2023-05-22T11:46:36.233Z,1.12
2023-05-22T11:47:36.284Z,1.93
2023-05-22T11:48:36.266Z,1.16
2023-05-22T11:49:36.279Z,1.09
2023-05-22T11:50:42.493Z,1.01
2023-05-22T11:51:37.295Z,1.04
2023-05-22T11:52:36.300Z,1.15
2023-05-22T11:53:36.286Z,1.30
2023-05-22T11:54:38.613Z,1.21
2023-05-22T11:55:36.333Z,1.54
2023-05-22T11:56:36.241Z,2.92
2023-05-22T11:57:36.225Z,2.06
2023-05-22T11:58:36.230Z,1.02
2023-05-22T11:59:36.253Z,3.17
2023-05-22T12:00:36.287Z,2.57
2023-05-22T12:01:36.255Z,3.12
2023-05-22T12:02:36.269Z,1.99
2023-05-22T12:03:36.328Z,1.63
2023-05-22T12:04:36.199Z,2.12
2023-05-22T12:05:36.181Z,2.54
2023-05-22T12:06:36.309Z,0.95
2023-05-22T12:07:36.174Z,0.54
2023-05-22T12:08:36.181Z,0.52
2023-05-22T12:09:36.152Z,0.55
2023-05-22T12:10:36.154Z,1.14
2023-05-22T12:11:36.242Z,2.08
2023-05-22T12:12:36.163Z,1.10
2023-05-22T12:13:36.158Z,1.70
2023-05-22T12:14:36.130Z,1.97
2023-05-22T12:15:36.119Z,1.22
2023-05-22T12:16:36.197Z,1.25
2023-05-22T12:17:36.113Z,1.03
2023-05-22T12:18:36.112Z,2.45
2023-05-22T12:19:36.255Z,2.55
2023-05-22T12:20:36.130Z,4.56
2023-05-22T12:21:36.083Z,1.82
2023-05-22T12:22:36.084Z,0.84
2023-05-22T12:23:36.060Z,1.71
2023-05-22T12:24:36.045Z,4.65
2023-05-22T12:25:36.043Z,3.83
2023-05-22T12:26:36.033Z,1.95
2023-05-22T12:27:38.484Z,1.26
2023-05-22T12:28:36.174Z,1.19
2023-05-22T12:29:36.210Z,1.54
2023-05-22T12:30:36.231Z,1.32
2023-05-22T12:31:36.301Z,1.04
2023-05-22T12:32:36.324Z,1.01
2023-05-22T12:33:36.305Z,0.77
2023-05-22T12:34:36.326Z,3.38